Time;durP1;ratioP1;P1;durP2;ratioP2;P2;SDS_P1;SDS_P2;PMS_P1;PMS_P2;Temp;Humidity;BMP_temperature;BMP_pressure;BME280_temperature;BME280_humidity;BME280_pressure;Samples;Min_cycle;Max_cycle;Signal;HPM_P1;HPM_P2
2023/10/26 00:00:20;;;;;;;21.03;17.00;;;;;21.80;98325.00;;;;2046449;28;20766;-57
2023/10/26 00:01:20;;;;;;;19.33;16.60;;;;;21.80;98329.00;;;;2064913;28;20752;-57
2023/10/26 00:02:20;;;;;;;21.83;18.37;;;;;21.80;98332.00;;;;2065843;28;20211;-57
2023/10/26 00:03:21;;;;;;;18.30;15.80;;;;;21.80;98328.00;;;;2061161;28;20263;-57
2023/10/26 00:04:21;;;;;;;20.00;15.67;;;;;21.80;98328.00;;;;2060198;28;20317;-56
2023/10/26 00:05:21;;;;;;;20.53;16.93;;;;;21.80;98330.00;;;;2058271;28;20226;-56
2023/10/26 00:06:22;;;;;;;19.70;17.07;;;;;21.80;98331.00;;;;2051514;28;20291;-57
2023/10/26 00:07:22;;;;;;;20.50;16.43;;;;;21.80;98331.00;;;;2052677;28;20216;-58
2023/10/26 00:08:22;;;;;;;18.10;15.30;;;;;21.80;98334.00;;;;2062138;28;20211;-57
2023/10/26 00:09:23;;;;;;;19.10;15.80;;;;;21.80;98343.00;;;;2060638;28;20214;-57
2023/10/26 00:10:24;;;;;;;18.80;15.63;;;;;21.80;98354.00;;;;2052891;28;20265;-57
2023/10/26 00:11:24;;;;;;;21.27;17.50;;;;;21.80;98344.00;;;;2066629;28;20214;-56
2023/10/26 00:12:24;;;;;;;18.83;15.80;;;;;21.80;98340.00;;;;2058935;28;20266;-57
2023/10/26 00:13:25;;;;;;;18.90;15.43;;;;;21.80;98344.00;;;;2056895;28;21030;-58
2023/10/26 00:14:25;;;;;;;22.50;15.90;;;;;21.80;98372.00;;;;2059110;28;20736;-57
2023/10/26 00:15:25;;;;;;;22.00;16.37;;;;;21.80;98346.00;;;;2052411;28;20694;-57
2023/10/26 00:16:26;;;;;;;17.93;14.87;;;;;21.80;98352.00;;;;2067734;28;20896;-57
2023/10/26 00:17:26;;;;;;;16.63;14.70;;;;;21.80;98341.00;;;;2064380;28;20302;-58
2023/10/26 00:18:26;;;;;;;17.23;15.40;;;;;21.80;98347.00;;;;2065290;28;20218;-57
2023/10/26 00:19:27;;;;;;;16.97;13.83;;;;;21.80;98344.00;;;;2062779;28;20226;-58
2023/10/26 00:20:27;;;;;;;17.67;15.17;;;;;21.80;98355.00;;;;2053592;28;20222;-58
2023/10/26 00:21:27;;;;;;;18.10;14.83;;;;;21.80;98354.00;;;;2066336;28;20289;-57
2023/10/26 00:22:28;;;;;;;17.13;14.20;;;;;21.80;98356.00;;;;2058345;28;20756;-58
2023/10/26 00:23:28;;;;;;;16.70;13.80;;;;;21.80;98364.00;;;;2059569;28;20746;-57
2023/10/26 00:24:29;;;;;;;16.57;14.50;;;;;21.80;98358.00;;;;2060928;28;20230;-57
2023/10/26 00:25:29;;;;;;;16.20;14.00;;;;;21.80;98360.00;;;;2057037;28;20275;-57
2023/10/26 00:26:30;;;;;;;16.57;13.70;;;;;21.80;98355.00;;;;2070092;28;20206;-57
2023/10/26 00:27:30;;;;;;;16.00;14.07;;;;;21.80;98360.00;;;;2063862;28;20222;-57
2023/10/26 00:28:30;;;;;;;16.17;14.40;;;;;21.70;98363.00;;;;2068828;28;20213;-57
2023/10/26 00:29:31;;;;;;;15.80;13.97;;;;;21.70;98355.00;;;;2068941;28;20320;-57
2023/10/26 00:30:32;;;;;;;14.83;13.33;;;;;21.80;98349.00;;;;2054711;28;20342;-58
2023/10/26 00:31:32;;;;;;;17.23;13.70;;;;;21.80;98366.00;;;;2060289;28;20213;-57
2023/10/26 00:32:33;;;;;;;15.83;13.27;;;;;21.80;98363.00;;;;2061891;28;20230;-57
2023/10/26 00:33:33;;;;;;;18.63;13.57;;;;;21.80;98367.00;;;;2062193;28;20241;-57
2023/10/26 00:34:34;;;;;;;15.50;13.80;;;;;21.70;98370.00;;;;2055689;28;20225;-57
2023/10/26 00:35:34;;;;;;;16.43;14.50;;;;;21.70;98363.00;;;;2055474;28;20222;-55
2023/10/26 00:36:34;;;;;;;15.37;13.30;;;;;21.70;98373.00;;;;2059795;28;20583;-57
2023/10/26 00:37:35;;;;;;;15.97;13.30;;;;;21.80;98367.00;;;;2060140;28;20233;-57
2023/10/26 00:38:35;;;;;;;15.90;13.10;;;;;21.70;98358.00;;;;2062145;28;20289;-57
2023/10/26 00:39:35;;;;;;;14.97;13.20;;;;;21.70;98359.00;;;;2059322;28;20237;-57
2023/10/26 00:40:36;;;;;;;14.43;12.93;;;;;21.70;98382.00;;;;2050938;28;20234;-56
2023/10/26 00:41:37;;;;;;;13.93;12.43;;;;;21.80;98370.00;;;;2060269;28;20237;-57
2023/10/26 00:42:38;;;;;;;14.05;12.65;;;;;21.70;98367.00;;;;2062457;28;20222;-57
2023/10/26 00:43:38;;;;;;;14.47;12.80;;;;;21.70;98373.00;;;;2059134;28;20234;-57
2023/10/26 00:44:38;;;;;;;12.97;11.57;;;;;21.70;98364.00;;;;2061666;28;20904;-55
2023/10/26 00:45:39;;;;;;;14.03;12.43;;;;;21.70;98365.00;;;;2055688;28;20230;-55
2023/10/26 00:46:39;;;;;;;12.37;11.07;;;;;21.70;98370.00;;;;2067794;28;20213;-56
2023/10/26 00:47:40;;;;;;;13.50;11.43;;;;;21.70;98377.00;;;;2063456;28;20995;-56
2023/10/26 00:48:40;;;;;;;14.50;12.27;;;;;21.70;98369.00;;;;2068877;28;20650;-56
2023/10/26 00:49:40;;;;;;;13.73;11.67;;;;;21.70;98382.00;;;;2073081;28;20210;-54
2023/10/26 00:50:41;;;;;;;12.53;11.33;;;;;21.30;98378.00;;;;2047133;28;20235;-55
2023/10/26 00:51:56;;;;;;;14.05;11.70;;;;;21.40;98374.00;;;;2047544;28;20224;-56
2023/10/26 00:52:56;;;;;;;12.93;11.52;;;;;21.70;98377.00;;;;2058395;28;20322;-55
2023/10/26 00:53:58;;;;;;;13.45;11.35;;;;;21.70;98381.00;;;;2064175;28;20249;-57
2023/10/26 00:54:58;;;;;;;12.20;11.00;;;;;21.70;98384.00;;;;2067380;28;20280;-56
2023/10/26 00:55:58;;;;;;;13.10;11.70;;;;;21.70;98386.00;;;;2068243;28;20284;-55
2023/10/26 00:56:59;;;;;;;11.87;10.10;;;;;21.70;98331.00;;;;2069307;28;20214;-55
2023/10/26 00:57:59;;;;;;;12.47;11.17;;;;;21.70;98390.00;;;;2065490;28;20697;-55
2023/10/26 00:58:59;;;;;;;13.93;10.80;;;;;21.70;98389.00;;;;2069204;28;20728;-57
2023/10/26 01:00:00;;;;;;;12.43;11.13;;;;;21.70;98387.00;;;;2051997;28;20736;-59
2023/10/26 01:01:00;;;;;;;11.70;10.50;;;;;21.70;98390.00;;;;2055678;28;20231;-56
2023/10/26 01:02:01;;;;;;;11.50;10.10;;;;;21.70;98386.00;;;;2063792;28;20218;-57
2023/10/26 01:03:01;;;;;;;12.00;10.40;;;;;21.70;98388.00;;;;2053852;28;20216;-55
2023/10/26 01:04:02;;;;;;;13.63;11.20;;;;;21.70;98392.00;;;;2062980;28;20211;-56
2023/10/26 01:05:03;;;;;;;12.43;11.13;;;;;21.70;98394.00;;;;2056842;28;20230;-57
2023/10/26 01:06:04;;;;;;;12.00;10.20;;;;;21.70;98395.00;;;;2071976;28;20281;-55
2023/10/26 01:07:04;;;;;;;11.67;10.47;;;;;21.70;98398.00;;;;2072164;28;20209;-55
2023/10/26 01:08:05;;;;;;;12.10;10.90;;;;;21.70;98397.00;;;;2065230;28;20203;-56
2023/10/26 01:09:05;;;;;;;12.53;9.93;;;;;21.70;98402.00;;;;2062321;28;20772;-57
2023/10/26 01:10:06;;;;;;;10.93;9.83;;;;;21.70;98404.00;;;;2054275;28;20219;-55
2023/10/26 01:11:06;;;;;;;11.93;10.47;;;;;21.70;98410.00;;;;2071951;28;20245;-56
2023/10/26 01:12:06;;;;;;;11.77;10.07;;;;;21.70;98354.00;;;;2068836;28;20206;-57
2023/10/26 01:13:08;;;;;;;10.57;9.40;;;;;21.70;98410.00;;;;2068331;28;20233;-56
2023/10/26 01:14:08;;;;;;;10.77;9.68;;;;;21.70;98404.00;;;;2072909;28;20205;-54
2023/10/26 01:15:08;;;;;;;11.70;9.50;;;;;21.70;98410.00;;;;2046446;28;20289;-57
2023/10/26 01:16:09;;;;;;;11.83;10.57;;;;;21.70;98419.00;;;;2061187;28;20266;-57
2023/10/26 01:17:09;;;;;;;10.10;9.10;;;;;21.70;98413.00;;;;2052376;28;20233;-57
2023/10/26 01:18:10;;;;;;;10.30;9.17;;;;;21.70;98420.00;;;;2056333;28;20713;-57
2023/10/26 01:19:10;;;;;;;9.97;8.97;;;;;21.60;98411.00;;;;2066154;28;20666;-55
2023/10/26 01:20:16;;;;;;;10.50;9.03;;;;;21.70;98417.00;;;;2054450;28;20671;-56
2023/10/26 01:21:16;;;;;;;10.05;8.68;;;;;21.60;98419.00;;;;2060874;28;20239;-55
2023/10/26 01:22:17;;;;;;;9.70;8.70;;;;;21.70;98418.00;;;;2064888;28;20245;-56
2023/10/26 01:23:17;;;;;;;9.60;8.60;;;;;21.60;98422.00;;;;2065911;28;20273;-57
2023/10/26 01:24:18;;;;;;;9.33;8.33;;;;;21.70;98415.00;;;;2064283;28;20444;-55
2023/10/26 01:25:18;;;;;;;10.83;9.70;;;;;21.70;98424.00;;;;2060502;28;20238;-55
2023/10/26 01:26:19;;;;;;;11.40;9.10;;;;;21.60;98417.00;;;;2071965;28;20481;-55
2023/10/26 01:27:19;;;;;;;10.60;8.73;;;;;21.70;98428.00;;;;2068509;28;20229;-56
2023/10/26 01:28:20;;;;;;;9.60;8.60;;;;;21.70;98436.00;;;;2063841;28;20229;-55
2023/10/26 01:29:20;;;;;;;10.17;8.40;;;;;21.70;98422.00;;;;2065071;28;20822;-57
2023/10/26 01:30:20;;;;;;;10.00;8.70;;;;;21.70;98424.00;;;;2057611;28;20226;-57
2023/10/26 01:31:21;;;;;;;10.50;8.97;;;;;21.70;98424.00;;;;2072371;28;20218;-55
2023/10/26 01:32:21;;;;;;;9.63;7.93;;;;;21.70;98424.00;;;;2068472;28;20222;-56
2023/10/26 01:33:21;;;;;;;9.33;8.17;;;;;21.60;98425.00;;;;2066119;28;20257;-56
2023/10/26 01:34:22;;;;;;;9.70;8.30;;;;;21.60;98425.00;;;;2063598;28;20219;-57
2023/10/26 01:35:22;;;;;;;9.93;8.43;;;;;21.60;98431.00;;;;2058570;28;20790;-57
2023/10/26 01:36:23;;;;;;;9.60;8.30;;;;;21.60;98431.00;;;;2066702;28;20240;-57
2023/10/26 01:37:23;;;;;;;9.13;8.23;;;;;21.60;98435.00;;;;2071935;28;20222;-55
2023/10/26 01:38:23;;;;;;;8.90;8.00;;;;;21.60;98428.00;;;;2070624;28;20229;-55
2023/10/26 01:39:24;;;;;;;8.70;7.80;;;;;21.30;98429.00;;;;2074054;28;20316;-55
2023/10/26 01:40:24;;;;;;;8.13;7.40;;;;;21.60;98442.00;;;;2064834;28;20305;-57
2023/10/26 01:41:25;;;;;;;8.87;7.97;;;;;21.60;98431.00;;;;2074870;28;20220;-57
2023/10/26 01:42:25;;;;;;;8.20;7.20;;;;;21.60;98437.00;;;;2073003;28;20248;-57
2023/10/26 01:43:25;;;;;;;8.43;7.57;;;;;21.60;98457.00;;;;2067324;28;20214;-55
2023/10/26 01:44:26;;;;;;;8.50;7.60;;;;;21.60;98433.00;;;;2066679;28;20703;-56
2023/10/26 01:45:26;;;;;;;8.33;7.40;;;;;21.60;98438.00;;;;2060115;28;20234;-55
2023/10/26 01:46:26;;;;;;;8.13;7.10;;;;;21.60;98440.00;;;;2070474;28;20210;-57
2023/10/26 01:47:26;;;;;;;7.97;6.90;;;;;21.60;98443.00;;;;2074688;28;20301;-57
2023/10/26 01:48:27;;;;;;;8.60;7.17;;;;;21.60;98457.00;;;;2074921;28;20214;-57
2023/10/26 01:49:27;;;;;;;8.00;7.00;;;;;21.60;98440.00;;;;2068797;28;20234;-55
2023/10/26 01:50:28;;;;;;;7.97;7.17;;;;;21.60;98432.00;;;;2061748;28;20293;-55
2023/10/26 01:51:28;;;;;;;8.47;7.57;;;;;21.10;98436.00;;;;2056988;28;20242;-55
2023/10/26 01:52:28;;;;;;;7.37;6.67;;;;;21.60;98437.00;;;;2045166;28;20245;-56
2023/10/26 01:53:29;;;;;;;7.70;6.27;;;;;21.60;98433.00;;;;2056332;28;20743;-56
2023/10/26 01:54:29;;;;;;;7.17;6.47;;;;;21.60;98435.00;;;;2069407;28;20921;-57
2023/10/26 01:55:29;;;;;;;7.40;6.70;;;;;21.60;98434.00;;;;2063389;28;20226;-57
2023/10/26 01:56:30;;;;;;;7.67;6.57;;;;;21.60;98432.00;;;;2070679;28;20210;-57
2023/10/26 01:57:31;;;;;;;6.77;6.07;;;;;21.60;98435.00;;;;2069002;28;20217;-57
2023/10/26 01:58:31;;;;;;;7.07;6.37;;;;;21.60;98429.00;;;;2074924;28;20472;-56
2023/10/26 01:59:31;;;;;;;7.77;7.07;;;;;21.60;98430.00;;;;2076175;28;20214;-58
2023/10/26 02:00:31;;;;;;;8.60;6.90;;;;;21.60;98434.00;;;;2055803;28;20230;-55
2023/10/26 02:01:32;;;;;;;6.90;6.30;;;;;21.60;98438.00;;;;2068876;28;20238;-55
2023/10/26 02:02:32;;;;;;;7.10;6.40;;;;;21.60;98436.00;;;;2067474;28;20219;-55
2023/10/26 02:03:33;;;;;;;8.10;7.30;;;;;21.60;98445.00;;;;2068156;28;20241;-55
2023/10/26 02:04:33;;;;;;;7.70;6.33;;;;;21.60;98439.00;;;;2063001;28;20441;-55
2023/10/26 02:05:33;;;;;;;9.30;6.80;;;;;21.60;98445.00;;;;2056285;28;20253;-56
2023/10/26 02:06:34;;;;;;;7.13;6.13;;;;;21.60;98439.00;;;;2073778;28;20210;-57
2023/10/26 02:07:34;;;;;;;6.60;6.00;;;;;21.60;98441.00;;;;2063222;28;20703;-56
2023/10/26 02:08:34;;;;;;;7.33;6.63;;;;;21.00;98445.00;;;;2060615;28;20759;-57
2023/10/26 02:09:35;;;;;;;6.77;6.07;;;;;21.60;98441.00;;;;2065421;28;20573;-55
2023/10/26 02:10:35;;;;;;;7.20;6.50;;;;;21.60;98443.00;;;;2060638;28;20238;-56
2023/10/26 02:11:36;;;;;;;7.30;6.60;;;;;21.60;98449.00;;;;2074205;28;20221;-56
2023/10/26 02:12:36;;;;;;;7.00;6.30;;;;;21.60;98443.00;;;;2064186;28;20632;-56
2023/10/26 02:13:36;;;;;;;6.70;6.03;;;;;21.60;98449.00;;;;2060826;28;20253;-56
2023/10/26 02:14:37;;;;;;;6.60;6.00;;;;;21.60;98449.00;;;;2069803;28;20288;-56
2023/10/26 02:15:37;;;;;;;6.87;6.20;;;;;21.60;98454.00;;;;2058342;28;20326;-55
2023/10/26 02:16:37;;;;;;;7.27;6.17;;;;;21.60;98447.00;;;;2069720;28;20854;-56
2023/10/26 02:17:38;;;;;;;6.40;5.80;;;;;21.60;98448.00;;;;2065970;28;20219;-56
2023/10/26 02:18:38;;;;;;;6.87;6.17;;;;;21.60;98449.00;;;;2071270;28;20222;-56
2023/10/26 02:19:38;;;;;;;7.10;6.40;;;;;21.60;98448.00;;;;2065049;28;20246;-55
2023/10/26 02:20:39;;;;;;;7.20;6.47;;;;;21.60;98446.00;;;;2059079;28;20317;-56
2023/10/26 02:21:39;;;;;;;7.47;6.77;;;;;21.60;98446.00;;;;2061164;28;20226;-56
2023/10/26 02:22:40;;;;;;;7.57;6.80;;;;;21.60;98416.00;;;;2056523;28;20263;-56
2023/10/26 02:23:43;;;;;;;7.03;5.90;;;;;21.60;98448.00;;;;2054449;28;20662;-56
2023/10/26 02:24:43;;;;;;;6.43;5.80;;;;;21.60;98450.00;;;;2061116;28;20230;-56
2023/10/26 02:25:43;;;;;;;6.30;5.70;;;;;21.50;98444.00;;;;2052832;28;20234;-56
2023/10/26 02:26:44;;;;;;;7.07;6.30;;;;;21.50;98459.00;;;;2061542;28;20219;-56
2023/10/26 02:27:44;;;;;;;6.23;5.63;;;;;21.50;98454.00;;;;2061847;28;20225;-55
2023/10/26 02:28:44;;;;;;;5.90;5.30;;;;;21.50;98464.00;;;;2063236;28;20239;-55
2023/10/26 02:29:45;;;;;;;6.30;5.70;;;;;21.60;98466.00;;;;2064059;28;20219;-56
2023/10/26 02:30:45;;;;;;;6.43;5.83;;;;;21.60;98468.00;;;;2056739;28;20261;-56
2023/10/26 02:31:46;;;;;;;6.57;5.87;;;;;21.60;98488.00;;;;2067959;28;20221;-56
2023/10/26 02:32:46;;;;;;;7.10;6.40;;;;;21.50;98468.00;;;;2061731;28;21628;-56
2023/10/26 02:33:46;;;;;;;5.83;5.23;;;;;21.50;98466.00;;;;2062361;28;20327;-56
2023/10/26 02:34:47;;;;;;;6.53;5.93;;;;;21.50;98465.00;;;;2066957;28;20226;-56
2023/10/26 02:35:47;;;;;;;7.17;6.20;;;;;21.50;98463.00;;;;2058294;28;20785;-55
2023/10/26 02:36:48;;;;;;;6.30;5.40;;;;;21.50;98465.00;;;;2064644;28;20222;-56
2023/10/26 02:37:48;;;;;;;6.87;5.93;;;;;21.50;98466.00;;;;2062929;28;20305;-56
2023/10/26 02:38:48;;;;;;;6.30;5.80;;;;;21.50;98460.00;;;;2062268;28;20298;-56
2023/10/26 02:39:49;;;;;;;6.33;5.73;;;;;21.50;98469.00;;;;2061873;28;20659;-56
2023/10/26 02:40:49;;;;;;;6.33;5.83;;;;;21.50;98470.00;;;;2048824;28;20247;-56
2023/10/26 02:41:49;;;;;;;7.03;5.40;;;;;21.50;98467.00;;;;2059119;28;20223;-55
2023/10/26 02:42:50;;;;;;;6.43;5.83;;;;;21.50;98469.00;;;;2053651;28;20224;-56
2023/10/26 02:43:50;;;;;;;5.63;5.10;;;;;21.50;98473.00;;;;2056849;28;20867;-55
2023/10/26 02:44:50;;;;;;;5.93;5.43;;;;;21.50;98477.00;;;;2061312;28;20859;-56
2023/10/26 02:46:09;;;;;;;6.90;5.80;;;;;21.50;98479.00;;;;2051496;28;20570;-56
2023/10/26 02:47:09;;;;;;;6.05;5.45;;;;;21.50;98477.00;;;;2061571;28;20222;-56
2023/10/26 02:48:09;;;;;;;8.00;5.60;;;;;21.50;98479.00;;;;2062216;28;20215;-56
2023/10/26 02:49:10;;;;;;;6.77;5.43;;;;;21.50;98477.00;;;;2061001;28;20778;-56
2023/10/26 02:50:10;;;;;;;7.00;6.03;;;;;21.50;98485.00;;;;2049254;28;20737;-56
2023/10/26 02:51:10;;;;;;;6.53;5.83;;;;;21.50;98474.00;;;;2057599;28;20862;-55
2023/10/26 02:52:10;;;;;;;5.63;5.13;;;;;21.50;98480.00;;;;2061819;28;20561;-56
2023/10/26 02:53:11;;;;;;;6.40;5.80;;;;;21.50;98484.00;;;;2061137;28;20682;-56
2023/10/26 02:54:11;;;;;;;5.80;5.30;;;;;21.50;98474.00;;;;2062288;28;20779;-56
2023/10/26 02:55:11;;;;;;;6.63;6.03;;;;;21.50;98477.00;;;;2051623;28;20551;-56
2023/10/26 02:56:12;;;;;;;5.77;5.23;;;;;21.50;98479.00;;;;2065681;28;23625;-56
2023/10/26 02:57:14;;;;;;;5.80;5.20;;;;;21.50;98480.00;;;;2061494;28;20332;-56
2023/10/26 02:58:14;;;;;;;6.40;5.80;;;;;21.50;98489.00;;;;2068160;28;20264;-56
2023/10/26 02:59:14;;;;;;;5.40;4.90;;;;;21.50;98485.00;;;;2069390;28;20238;-55
2023/10/26 03:00:16;;;;;;;6.00;5.40;;;;;21.50;98479.00;;;;2051724;28;20270;-56
2023/10/26 03:01:16;;;;;;;6.80;6.10;;;;;21.50;98484.00;;;;2055644;28;20213;-55
2023/10/26 03:02:16;;;;;;;6.30;5.70;;;;;21.50;98478.00;;;;2061312;28;20207;-56
2023/10/26 03:03:17;;;;;;;6.10;5.50;;;;;21.50;98471.00;;;;2059925;28;20300;-55
2023/10/26 03:04:17;;;;;;;5.10;4.70;;;;;21.50;98478.00;;;;2061593;28;20293;-56
2023/10/26 03:05:17;;;;;;;6.10;5.50;;;;;21.50;98477.00;;;;2051714;28;20229;-56
2023/10/26 03:06:18;;;;;;;6.33;5.73;;;;;21.50;98474.00;;;;2066814;28;20270;-56
2023/10/26 03:07:22;;;;;;;6.13;5.53;;;;;21.50;98481.00;;;;2058025;28;20225;-56
2023/10/26 03:08:22;;;;;;;6.47;5.88;;;;;21.50;98473.00;;;;2061119;28;20690;-56
2023/10/26 03:09:23;;;;;;;6.37;5.77;;;;;21.50;98469.00;;;;2061655;28;20318;-55
2023/10/26 03:10:23;;;;;;;7.00;6.40;;;;;21.50;98474.00;;;;2053210;28;20323;-56
2023/10/26 03:11:23;;;;;;;6.50;5.90;;;;;21.50;98482.00;;;;2068744;28;20302;-56
2023/10/26 03:12:24;;;;;;;5.93;5.43;;;;;21.50;98473.00;;;;2064222;28;20227;-56
2023/10/26 03:13:24;;;;;;;6.20;5.60;;;;;21.50;98522.00;;;;2061894;28;20281;-56
2023/10/26 03:14:24;;;;;;;6.10;5.50;;;;;21.50;98477.00;;;;2061752;28;20723;-55
2023/10/26 03:15:25;;;;;;;5.63;5.10;;;;;21.50;98487.00;;;;2049409;28;20310;-56
2023/10/26 03:16:25;;;;;;;5.40;4.90;;;;;21.50;98487.00;;;;2061836;28;20675;-56
2023/10/26 03:17:25;;;;;;;6.37;5.80;;;;;21.50;98460.00;;;;2061118;28;20591;-56
2023/10/26 03:18:26;;;;;;;5.20;4.77;;;;;21.50;98482.00;;;;2069411;28;20272;-55
2023/10/26 03:19:26;;;;;;;5.90;5.33;;;;;21.50;98487.00;;;;2060196;28;20210;-56
2023/10/26 03:20:26;;;;;;;6.30;5.00;;;;;21.00;98486.00;;;;2041542;28;20314;-56
2023/10/26 03:21:27;;;;;;;4.93;4.50;;;;;21.50;98485.00;;;;2068472;28;20218;-56
2023/10/26 03:22:27;;;;;;;5.53;4.83;;;;;21.50;98483.00;;;;2059659;28;20652;-55
2023/10/26 03:23:27;;;;;;;5.43;4.93;;;;;21.50;98482.00;;;;2064672;28;20313;-56
2023/10/26 03:24:28;;;;;;;6.07;5.47;;;;;21.50;98490.00;;;;2059439;28;20215;-56
2023/10/26 03:25:28;;;;;;;5.70;5.03;;;;;21.50;98486.00;;;;2050543;28;20227;-56
2023/10/26 03:26:28;;;;;;;5.80;5.30;;;;;21.50;98484.00;;;;2068707;28;20571;-56
2023/10/26 03:27:29;;;;;;;5.20;4.70;;;;;21.50;98474.00;;;;2062072;28;20218;-55
2023/10/26 03:28:29;;;;;;;5.93;5.40;;;;;21.50;98490.00;;;;2061630;28;20222;-55
2023/10/26 03:29:30;;;;;;;6.07;5.47;;;;;21.50;98496.00;;;;2060059;28;20234;-56
2023/10/26 03:30:30;;;;;;;4.43;4.03;;;;;21.50;98490.00;;;;2058417;28;20230;-57
2023/10/26 03:31:33;;;;;;;5.50;4.90;;;;;21.50;98487.00;;;;2067547;28;20314;-56
2023/10/26 03:32:33;;;;;;;5.43;4.93;;;;;21.40;98480.00;;;;2064412;28;20207;-53
2023/10/26 03:33:34;;;;;;;6.00;5.40;;;;;21.50;98482.00;;;;2061595;28;20302;-53
2023/10/26 03:34:34;;;;;;;6.77;6.07;;;;;21.40;98481.00;;;;2061512;28;20211;-57
2023/10/26 03:35:37;;;;;;;5.80;5.20;;;;;21.40;98476.00;;;;2051024;28;20310;-57
2023/10/26 03:36:38;;;;;;;5.93;5.32;;;;;21.50;98487.00;;;;2061197;28;20207;-56
2023/10/26 03:37:38;;;;;;;5.60;5.10;;;;;21.40;98477.00;;;;2061498;28;21175;-54
2023/10/26 03:38:38;;;;;;;5.67;5.17;;;;;21.40;98481.00;;;;2061071;28;20592;-56
2023/10/26 03:39:39;;;;;;;5.20;4.80;;;;;21.40;98485.00;;;;2061769;28;20246;-55
2023/10/26 03:40:39;;;;;;;5.63;5.13;;;;;21.40;98478.00;;;;2049423;28;20231;-57
2023/10/26 03:41:39;;;;;;;6.00;5.00;;;;;21.40;98412.00;;;;2060155;28;20225;-55
2023/10/26 03:42:40;;;;;;;5.07;4.63;;;;;21.40;98492.00;;;;2055826;28;20634;-54
2023/10/26 03:43:40;;;;;;;5.53;4.90;;;;;21.40;98478.00;;;;2062335;28;20848;-55
2023/10/26 03:44:40;;;;;;;5.47;4.97;;;;;21.50;98481.00;;;;2062666;28;20254;-54
2023/10/26 03:45:44;;;;;;;5.37;4.87;;;;;21.40;98482.00;;;;2051052;28;20223;-55
2023/10/26 03:46:46;;;;;;;5.32;4.82;;;;;21.50;98477.00;;;;2070354;28;20222;-55
2023/10/26 03:47:46;;;;;;;4.88;4.47;;;;;21.40;98484.00;;;;2068382;28;20333;-54
2023/10/26 03:48:47;;;;;;;4.87;4.47;;;;;21.40;98477.00;;;;2058358;28;20212;-56
2023/10/26 03:49:51;;;;;;;5.37;4.87;;;;;21.40;98480.00;;;;2054480;28;20223;-57
2023/10/26 03:50:51;;;;;;;5.53;4.95;;;;;21.40;98478.00;;;;2048195;28;20230;-57
2023/10/26 03:51:51;;;;;;;5.73;5.23;;;;;21.40;98481.00;;;;2060887;28;20210;-57
2023/10/26 03:52:52;;;;;;;4.73;4.27;;;;;21.40;98487.00;;;;2060321;28;23016;-55
2023/10/26 03:53:52;;;;;;;4.43;4.03;;;;;21.40;98486.00;;;;2062009;28;20276;-55
2023/10/26 03:54:53;;;;;;;5.30;4.90;;;;;21.40;98477.00;;;;2056295;28;20253;-54
2023/10/26 03:55:54;;;;;;;5.63;5.13;;;;;21.40;98484.00;;;;2055028;28;20229;-54
2023/10/26 03:56:54;;;;;;;5.78;4.70;;;;;21.40;98483.00;;;;2061300;28;20631;-56
2023/10/26 03:57:55;;;;;;;4.90;4.50;;;;;21.40;98481.00;;;;2060438;28;20222;-53
2023/10/26 03:58:55;;;;;;;4.93;4.50;;;;;21.40;98483.00;;;;2068848;28;20614;-55
2023/10/26 03:59:55;;;;;;;5.40;4.90;;;;;21.40;98479.00;;;;2063803;28;20242;-56
2023/10/26 04:00:57;;;;;;;5.50;4.87;;;;;21.40;98483.00;;;;2044087;28;20223;-56
2023/10/26 04:01:58;;;;;;;5.50;5.00;;;;;21.40;98482.00;;;;2060060;28;20226;-55
2023/10/26 04:02:58;;;;;;;5.50;4.50;;;;;21.40;98475.00;;;;2066401;28;20423;-56
2023/10/26 04:03:59;;;;;;;4.93;4.50;;;;;21.40;98480.00;;;;2061510;28;20219;-55
2023/10/26 04:04:59;;;;;;;5.13;4.63;;;;;21.40;98482.00;;;;2059390;28;20222;-53
2023/10/26 04:05:59;;;;;;;6.20;5.00;;;;;21.40;98482.00;;;;2049621;28;20310;-54
2023/10/26 04:07:00;;;;;;;5.17;4.67;;;;;21.40;98480.00;;;;2060736;28;20707;-53
2023/10/26 04:08:02;;;;;;;6.30;4.10;;;;;21.40;98485.00;;;;2061307;28;20237;-53
2023/10/26 04:09:02;;;;;;;4.95;4.47;;;;;21.40;98477.00;;;;2061296;28;20749;-57
2023/10/26 04:10:05;;;;;;;4.67;3.93;;;;;21.40;98488.00;;;;2056457;28;20219;-60
2023/10/26 04:11:05;;;;;;;5.07;4.68;;;;;21.40;98480.00;;;;2053471;28;21055;-56
2023/10/26 04:12:06;;;;;;;4.80;4.30;;;;;21.40;98490.00;;;;2060428;28;20218;-54
2023/10/26 04:13:06;;;;;;;4.60;4.20;;;;;21.40;98483.00;;;;2060793;28;20211;-57
2023/10/26 04:14:07;;;;;;;4.57;4.17;;;;;21.40;98488.00;;;;2058000;28;20214;-57
2023/10/26 04:15:08;;;;;;;5.47;4.97;;;;;21.40;98490.00;;;;2054172;28;20212;-57
2023/10/26 04:16:08;;;;;;;5.60;4.60;;;;;21.40;98489.00;;;;2068756;28;20226;-56
2023/10/26 04:17:08;;;;;;;5.00;4.50;;;;;21.00;98485.00;;;;2063380;28;20281;-57
2023/10/26 04:18:09;;;;;;;4.60;4.20;;;;;21.40;98485.00;;;;2054473;28;20224;-56
2023/10/26 04:19:09;;;;;;;5.30;4.13;;;;;21.40;98488.00;;;;2061025;28;20215;-54
2023/10/26 04:20:10;;;;;;;5.27;4.77;;;;;21.40;98491.00;;;;2057663;28;20213;-57
2023/10/26 04:21:10;;;;;;;5.00;4.60;;;;;21.40;98496.00;;;;2059770;28;20217;-56
2023/10/26 04:22:11;;;;;;;5.10;4.63;;;;;21.40;98492.00;;;;2056805;28;20582;-57
2023/10/26 04:23:12;;;;;;;5.27;4.77;;;;;21.40;98497.00;;;;2061250;28;20750;-57
2023/10/26 04:24:12;;;;;;;5.27;4.77;;;;;21.40;98490.00;;;;2060358;28;20463;-54
2023/10/26 04:25:13;;;;;;;6.97;5.10;;;;;21.40;98488.00;;;;2053509;28;20286;-54
2023/10/26 04:26:13;;;;;;;4.80;4.40;;;;;21.40;98494.00;;;;2061268;28;20203;-56
2023/10/26 04:27:13;;;;;;;5.17;4.73;;;;;21.40;98495.00;;;;2065316;28;20202;-57
2023/10/26 04:28:15;;;;;;;4.60;4.20;;;;;21.40;98491.00;;;;2061514;28;20217;-57
2023/10/26 04:29:15;;;;;;;4.30;3.90;;;;;21.40;98486.00;;;;2063049;28;20214;-55
2023/10/26 04:30:16;;;;;;;4.57;4.17;;;;;21.40;98486.00;;;;2050836;28;20211;-56
2023/10/26 04:31:16;;;;;;;5.07;3.80;;;;;21.40;98494.00;;;;2062327;28;20280;-57
2023/10/26 04:32:17;;;;;;;4.53;4.13;;;;;21.40;98490.00;;;;2066803;28;20776;-54
2023/10/26 04:33:17;;;;;;;5.10;4.60;;;;;21.40;98488.00;;;;2060486;28;20273;-55
2023/10/26 04:34:17;;;;;;;4.47;4.07;;;;;21.40;98489.00;;;;2066123;28;20222;-55
2023/10/26 04:35:18;;;;;;;4.50;4.10;;;;;21.40;98493.00;;;;2050982;28;20333;-57
2023/10/26 04:36:19;;;;;;;4.83;4.43;;;;;21.40;98492.00;;;;2066406;28;20217;-57
2023/10/26 04:37:19;;;;;;;5.30;4.80;;;;;21.40;98489.00;;;;2062423;28;20203;-55
2023/10/26 04:38:20;;;;;;;7.53;4.37;;;;;21.40;98491.00;;;;2067450;28;21047;-57
2023/10/26 04:39:22;;;;;;;5.00;4.50;;;;;21.40;98504.00;;;;2060343;28;20679;-53
2023/10/26 04:40:22;;;;;;;4.65;4.00;;;;;21.40;98498.00;;;;2051468;28;20230;-55
2023/10/26 04:41:22;;;;;;;4.50;4.10;;;;;21.40;98502.00;;;;2063200;28;24348;-57
2023/10/26 04:42:23;;;;;;;5.30;4.80;;;;;21.40;98499.00;;;;2058332;28;20910;-57
2023/10/26 04:43:23;;;;;;;4.87;4.47;;;;;21.40;98502.00;;;;2059490;28;20230;-54
2023/10/26 04:44:23;;;;;;;4.73;4.27;;;;;21.40;98500.00;;;;2060424;28;20250;-54
2023/10/26 04:45:24;;;;;;;5.93;4.40;;;;;21.40;98498.00;;;;2048405;28;20323;-55
2023/10/26 04:46:24;;;;;;;4.80;4.40;;;;;21.40;98498.00;;;;2060277;28;20215;-56
2023/10/26 04:47:24;;;;;;;5.30;4.80;;;;;21.40;98488.00;;;;2060465;28;20222;-57
2023/10/26 04:48:25;;;;;;;4.63;4.23;;;;;21.40;98503.00;;;;2063064;28;20827;-57
2023/10/26 04:49:25;;;;;;;4.97;4.37;;;;;21.40;98502.00;;;;2058405;28;20696;-57
2023/10/26 04:50:25;;;;;;;5.13;4.73;;;;;21.40;98509.00;;;;2051225;28;20881;-57
2023/10/26 04:51:26;;;;;;;4.90;4.50;;;;;21.40;98498.00;;;;2073121;28;20202;-54
2023/10/26 04:52:26;;;;;;;5.50;4.60;;;;;21.40;98495.00;;;;2064802;28;20207;-55
2023/10/26 04:53:27;;;;;;;4.60;4.20;;;;;21.40;98500.00;;;;2064337;28;20360;-56
2023/10/26 04:54:27;;;;;;;4.93;4.43;;;;;21.40;98502.00;;;;2065418;28;20305;-57
2023/10/26 04:55:32;;;;;;;5.03;4.53;;;;;21.40;98505.00;;;;2054831;28;20226;-56
2023/10/26 04:56:32;;;;;;;4.97;4.47;;;;;21.40;98499.00;;;;2068021;28;20712;-54
2023/10/26 04:57:32;;;;;;;6.00;5.50;;;;;21.40;98496.00;;;;2064912;28;20307;-56
2023/10/26 04:58:33;;;;;;;6.13;5.30;;;;;21.40;98504.00;;;;2060731;28;20235;-56
2023/10/26 04:59:34;;;;;;;5.30;4.73;;;;;21.40;98498.00;;;;2056047;28;20245;-57
2023/10/26 05:00:34;;;;;;;4.50;4.10;;;;;21.40;98496.00;;;;2053832;28;20222;-54
2023/10/26 05:01:35;;;;;;;5.70;5.00;;;;;21.40;98493.00;;;;2067291;28;20210;-54